This is the latest recevied weather packets stored in our database for station/object KD4MBW. If no packets are shown the sender has not sent any weather packets the latest 10 day(s).
| Time | Temp. | Humidity | Pressure | Rain* | Wind** | Luminosity | Snow |
|---|---|---|---|---|---|---|---|
| 1787525455 | 33.89° C | 64% | 1013.7 hPa | 0 mm | - | 138 W/m² | - |
| 1787525150 | 33.89° C | 62% | 1013.7 hPa | 0 mm | - | 144 W/m² | - |
| 1787524846 | 33.89° C | 61% | 1013.7 hPa | 0 mm | - | 146 W/m² | - |
| 1787524541 | 33.33° C | 63% | 1013.6 hPa | 0 mm | - | 156 W/m² | - |
| 1787524235 | 33.33° C | 63% | 1013.6 hPa | 0 mm | - | 175 W/m² | - |
| 1787523932 | 33.89° C | 63% | 1013.8 hPa | 0 mm | - | 179 W/m² | - |
| 1787523632 | 33.33° C | 63% | 1013.8 hPa | 0 mm | - | 200 W/m² | - |
| 1787523331 | 33.89° C | 65% | 1014 hPa | 0 mm | - | 225 W/m² | - |
| 1787523027 | 33.89° C | 66% | 1013.9 hPa | 0 mm | - | 255 W/m² | - |
| 1787522723 | 32.78° C | 67% | 1014 hPa | 0 mm | - | 258 W/m² | - |
| 1787522418 | 32.78° C | 68% | 1013.8 hPa | 0 mm | - | 150 W/m² | - |
| 1787522113 | 32.22° C | 69% | 1013.8 hPa | 0 mm | - | 316 W/m² | - |
| 1787521812 | 31.67° C | 72% | 1014 hPa | 0 mm | - | 259 W/m² | - |
| 1787521507 | 33.33° C | 67% | 1013.9 hPa | 0 mm | - | 293 W/m² | - |
| 1787521201 | 33.89° C | 63% | 1013.6 hPa | 0 mm | - | 161 W/m² | - |
| 1787520897 | 33.89° C | 62% | 1013.8 hPa | 0 mm | - | 183 W/m² | - |
| 1787520592 | 33.89° C | 62% | 1013.7 hPa | 0 mm | - | 108 W/m² | - |
| 1787520288 | 34.44° C | 61% | 1013.9 hPa | 0 mm | - | 311 W/m² | - |
| 1787519982 | 34.44° C | 61% | 1013.7 hPa | 0 mm | - | 165 W/m² | - |
| 1787519678 | 34.44° C | 61% | 1013.7 hPa | 0 mm | - | 419 W/m² | - |
| 1787519372 | 35° C | 59% | 1013.6 hPa | 0 mm | - | 455 W/m² | - |
| 1787519068 | 35° C | 60% | 1013.9 hPa | 0 mm | - | 493 W/m² | - |
| 1787518762 | 35° C | 60% | 1013.9 hPa | 0 mm | - | 525 W/m² | - |
| 1787518459 | 33.89° C | 61% | 1013.9 hPa | 0 mm | - | 367 W/m² | - |
| 1787518153 | 35° C | 60% | 1013.7 hPa | 0 mm | - | 364 W/m² | - |
* Rain latest hour (hover to see other rain measurements)
** Current wind speed in m/s (hover to see current wind gust speed)